Time;durP1;ratioP1;P1;durP2;ratioP2;P2;SDS_P1;SDS_P2;PMS_P1;PMS_P2;Temp;Humidity;BMP_temperature;BMP_pressure;BME280_temperature;BME280_humidity;BME280_pressure;Samples;Min_cycle;Max_cycle;Signal;HPM_P1;HPM_P2
2022/10/06 00:00:44;;;;;;;58.60;30.88;;;8.20;99.90;;;;;;5074185;28;20032;-55
2022/10/06 00:03:11;;;;;;;62.42;30.30;;;8.20;99.90;;;;;;5073923;28;20380;-55
2022/10/06 00:05:37;;;;;;;65.88;32.88;;;8.20;99.90;;;;;;5074032;28;20497;-55
2022/10/06 00:08:04;;;;;;;64.45;33.33;;;8.10;99.90;;;;;;5074448;28;20032;-55
2022/10/06 00:10:30;;;;;;;61.22;31.75;;;8.00;99.90;;;;;;5074178;28;20379;-55
2022/10/06 00:12:57;;;;;;;62.17;32.38;;;8.10;99.90;;;;;;5074085;28;20063;-54
2022/10/06 00:15:29;;;;;;;61.63;31.42;;;8.10;99.90;;;;;;5074029;28;20039;-55
2022/10/06 00:17:56;;;;;;;57.40;31.33;;;8.10;99.90;;;;;;5074114;28;20031;-55
2022/10/06 00:20:22;;;;;;;58.85;32.10;;;8.00;99.90;;;;;;5074096;28;20055;-55
2022/10/06 00:22:49;;;;;;;56.15;32.03;;;8.00;99.90;;;;;;5074185;28;20466;-54
2022/10/06 00:25:18;;;;;;;57.80;30.52;;;7.90;99.90;;;;;;5085689;28;20031;-54
2022/10/06 00:27:47;;;;;;;54.75;29.00;;;7.90;99.90;;;;;;5094280;28;20039;-55
2022/10/06 00:30:23;;;;;;;53.85;30.45;;;7.90;99.90;;;;;;5092493;28;20466;-55
2022/10/06 00:32:56;;;;;;;55.03;30.33;;;8.00;99.90;;;;;;5093221;28;20055;-54
2022/10/06 00:35:24;;;;;;;60.50;30.55;;;7.90;99.90;;;;;;5094132;28;20027;-55
2022/10/06 00:37:50;;;;;;;60.65;31.23;;;7.90;99.90;;;;;;5094208;28;20031;-54
2022/10/06 00:40:17;;;;;;;54.28;30.48;;;7.80;99.90;;;;;;5092712;28;20036;-55
2022/10/06 00:42:51;;;;;;;53.97;29.85;;;7.90;99.90;;;;;;5092658;28;20085;-54
2022/10/06 00:45:22;;;;;;;59.40;31.73;;;7.80;99.90;;;;;;5089793;28;20096;-54
2022/10/06 00:47:48;;;;;;;51.22;29.20;;;7.90;99.90;;;;;;5074048;28;20382;-54
2022/10/06 00:50:15;;;;;;;53.80;29.17;;;7.80;99.90;;;;;;5073499;28;20021;-54
2022/10/06 00:52:41;;;;;;;55.28;28.00;;;7.90;99.90;;;;;;5073876;28;20036;-54
2022/10/06 00:55:08;;;;;;;49.05;27.77;;;7.90;99.90;;;;;;5073441;28;20021;-54
2022/10/06 00:57:39;;;;;;;52.00;27.23;;;8.00;99.90;;;;;;5073937;28;20028;-54
2022/10/06 01:00:05;;;;;;;;;;;8.00;99.90;;;;;;5074299;28;20571;-54
2022/10/06 01:02:47;;;;;;;55.17;27.92;;;8.00;99.90;;;;;;5073698;28;20350;-54
2022/10/06 01:05:24;;;;;;;55.28;29.25;;;8.20;99.90;;;;;;5073507;28;20386;-54
2022/10/06 01:07:50;;;;;;;60.13;29.48;;;8.30;99.90;;;;;;5073687;28;20506;-55
2022/10/06 01:10:16;;;;;;;60.72;28.30;;;8.30;99.90;;;;;;5073462;28;20029;-55
2022/10/06 01:12:42;;;;;;;51.63;26.13;;;8.30;99.90;;;;;;5074117;28;20102;-54
2022/10/06 01:15:09;;;;;;;46.90;25.17;;;8.40;99.90;;;;;;5077279;28;20489;-55
2022/10/06 01:17:37;;;;;;;45.67;24.88;;;8.30;99.90;;;;;;5077791;28;20373;-54
2022/10/06 01:20:07;;;;;;;45.33;23.73;;;8.30;99.90;;;;;;5076373;28;20032;-55
2022/10/06 01:22:38;;;;;;;44.42;24.17;;;8.30;99.90;;;;;;5076207;28;20029;-54
2022/10/06 01:25:07;;;;;;;42.73;24.37;;;8.30;99.90;;;;;;5076102;28;20035;-54
2022/10/06 01:27:35;;;;;;;44.10;24.20;;;8.20;99.90;;;;;;5077466;28;20257;-54
2022/10/06 01:30:02;;;;;;;46.80;24.52;;;8.20;99.90;;;;;;5077393;28;20082;-54
2022/10/06 01:32:34;;;;;;;42.78;23.85;;;8.20;99.90;;;;;;5075910;28;20028;-54
2022/10/06 01:35:00;;;;;;;51.17;24.85;;;8.20;99.90;;;;;;5077482;28;20111;-54
2022/10/06 01:37:27;;;;;;;50.47;24.50;;;8.20;99.90;;;;;;5075739;28;20044;-56
2022/10/06 01:39:53;;;;;;;50.30;25.30;;;8.10;99.90;;;;;;5075954;28;20102;-54
2022/10/06 01:42:20;;;;;;;52.25;25.17;;;8.10;99.90;;;;;;5077351;28;20028;-55
2022/10/06 01:44:45;;;;;;;48.08;24.60;;;8.10;99.90;;;;;;5077107;28;20438;-54
2022/10/06 01:47:12;;;;;;;43.40;22.55;;;8.00;99.90;;;;;;5075333;28;20496;-54
2022/10/06 01:49:38;;;;;;;43.40;21.80;;;8.00;99.90;;;;;;5075776;28;20036;-54
2022/10/06 01:52:04;;;;;;;38.70;20.38;;;8.00;99.90;;;;;;5076809;28;20024;-55
2022/10/06 01:54:30;;;;;;;38.22;21.38;;;7.90;99.90;;;;;;5075509;28;20027;-54
2022/10/06 01:56:56;;;;;;;40.75;20.60;;;8.00;99.90;;;;;;5075580;28;20037;-54
2022/10/06 01:59:23;;;;;;;40.45;20.90;;;8.00;99.90;;;;;;5075259;28;20035;-54
2022/10/06 02:01:50;;;;;;;41.90;21.35;;;8.00;99.90;;;;;;5075442;28;20119;-54
2022/10/06 02:04:16;;;;;;;55.28;25.90;;;8.00;99.90;;;;;;5075171;28;20042;-54
2022/10/06 02:06:42;;;;;;;57.72;26.13;;;8.10;99.90;;;;;;5075171;28;20032;-54
2022/10/06 02:09:08;;;;;;;45.88;23.67;;;8.10;99.90;;;;;;5075055;28;20091;-54
2022/10/06 02:11:37;;;;;;;42.88;21.02;;;8.10;99.90;;;;;;5076778;28;20085;-54
2022/10/06 02:14:03;;;;;;;34.50;18.98;;;8.10;99.90;;;;;;5076343;28;20072;-54
2022/10/06 02:16:31;;;;;;;34.65;19.70;;;8.00;99.90;;;;;;5075009;28;20029;-54
2022/10/06 02:18:57;;;;;;;36.00;19.52;;;8.00;99.90;;;;;;5075031;28;20148;-55
2022/10/06 02:21:23;;;;;;;42.30;21.60;;;8.00;99.90;;;;;;5074822;28;20040;-54
2022/10/06 02:23:50;;;;;;;34.17;20.20;;;8.10;99.90;;;;;;5074875;28;20035;-55
2022/10/06 02:26:17;;;;;;;37.47;18.40;;;7.90;99.90;;;;;;5074757;28;20495;-54
2022/10/06 02:28:50;;;;;;;36.45;19.40;;;8.00;99.90;;;;;;5075074;28;20032;-55
2022/10/06 02:31:20;;;;;;;36.72;18.17;;;8.00;99.90;;;;;;5075808;28;20033;-54
2022/10/06 02:33:47;;;;;;;40.38;19.35;;;8.10;99.90;;;;;;5075007;28;20302;-54
2022/10/06 02:36:18;;;;;;;32.28;18.45;;;8.00;99.90;;;;;;5074507;28;20033;-55
2022/10/06 02:38:44;;;;;;;39.15;19.58;;;7.90;99.90;;;;;;5076109;28;20425;-55
2022/10/06 02:41:10;;;;;;;34.65;18.50;;;7.90;99.90;;;;;;5074464;28;20489;-54
2022/10/06 02:43:37;;;;;;;36.15;18.77;;;7.80;99.90;;;;;;5074490;28;20062;-54
2022/10/06 02:46:07;;;;;;;36.03;19.45;;;7.90;99.90;;;;;;5074531;28;20482;-54
2022/10/06 02:48:34;;;;;;;34.33;17.88;;;7.80;99.90;;;;;;5074755;28;20029;-54
2022/10/06 02:51:08;;;;;;;34.65;17.48;;;7.80;99.90;;;;;;5074374;28;20041;-54
2022/10/06 02:53:36;;;;;;;28.77;17.17;;;7.80;99.90;;;;;;5074418;28;20028;-54
2022/10/06 02:56:05;;;;;;;30.27;17.00;;;7.70;99.90;;;;;;5074549;28;20044;-55
2022/10/06 02:58:32;;;;;;;30.35;17.33;;;7.80;99.90;;;;;;5074466;28;20029;-54
2022/10/06 03:01:07;;;;;;;32.33;18.05;;;7.80;99.90;;;;;;5074450;28;20032;-54
2022/10/06 03:03:35;;;;;;;34.40;17.58;;;7.90;99.90;;;;;;5074166;28;20171;-55
2022/10/06 03:06:03;;;;;;;33.92;17.83;;;7.80;99.90;;;;;;5074126;28;20398;-54
2022/10/06 03:08:31;;;;;;;35.90;18.42;;;7.70;99.90;;;;;;5074166;28;20028;-54
2022/10/06 03:11:06;;;;;;;32.65;18.38;;;7.60;99.90;;;;;;5073974;28;20109;-54
2022/10/06 03:13:31;;;;;;;31.73;16.95;;;7.50;99.90;;;;;;5074183;28;20040;-54
2022/10/06 03:15:58;;;;;;;32.10;16.90;;;7.50;99.90;;;;;;5074294;28;20230;-54
2022/10/06 03:18:24;;;;;;;33.03;18.20;;;7.50;99.90;;;;;;5074989;28;20480;-54
2022/10/06 03:20:50;;;;;;;31.55;17.38;;;7.40;99.90;;;;;;5075372;28;20036;-54
2022/10/06 03:23:16;;;;;;;31.38;17.58;;;7.30;99.90;;;;;;5075453;28;20024;-55
2022/10/06 03:25:42;;;;;;;33.45;18.42;;;7.30;99.90;;;;;;5073789;28;20047;-54
2022/10/06 03:28:10;;;;;;;30.40;17.02;;;7.20;99.90;;;;;;5075475;28;20058;-54
2022/10/06 03:30:36;;;;;;;32.45;16.55;;;7.20;99.90;;;;;;5073861;28;20032;-54
2022/10/06 03:33:02;;;;;;;37.63;18.05;;;7.20;99.90;;;;;;5057254;28;20021;-55
2022/10/06 03:35:29;;;;;;;30.17;16.25;;;7.30;99.90;;;;;;5072989;28;20550;-55
2022/10/06 03:37:58;;;;;;;28.70;16.08;;;7.30;99.90;;;;;;5073729;28;20551;-55
2022/10/06 03:40:24;;;;;;;32.22;17.35;;;7.20;99.90;;;;;;5073370;28;20367;-55
2022/10/06 03:42:50;;;;;;;28.40;16.30;;;7.10;99.90;;;;;;5073614;28;20036;-54
2022/10/06 03:45:16;;;;;;;32.65;16.80;;;7.20;99.90;;;;;;5073094;28;20029;-55
2022/10/06 03:47:42;;;;;;;33.13;16.88;;;7.10;99.90;;;;;;5074766;28;20082;-54
2022/10/06 03:50:09;;;;;;;27.48;16.35;;;7.10;99.90;;;;;;5072955;28;20031;-55
2022/10/06 03:52:35;;;;;;;31.90;16.80;;;7.00;99.90;;;;;;5073366;28;20029;-55
2022/10/06 03:55:01;;;;;;;30.35;15.68;;;7.10;99.90;;;;;;5073269;28;20044;-55
2022/10/06 03:57:27;;;;;;;31.98;17.08;;;7.20;99.90;;;;;;5073010;28;20179;-55
2022/10/06 03:59:58;;;;;;;27.30;15.68;;;7.10;99.90;;;;;;5073181;28;20028;-55
2022/10/06 04:02:24;;;;;;;30.60;15.52;;;7.10;99.90;;;;;;5073162;28;20039;-55
2022/10/06 04:04:50;;;;;;;40.67;17.10;;;7.20;99.90;;;;;;5074413;28;20032;-55
2022/10/06 04:07:16;;;;;;;30.90;17.00;;;7.20;99.90;;;;;;5072913;28;20511;-55
2022/10/06 04:09:42;;;;;;;28.48;16.83;;;7.10;99.90;;;;;;5074464;28;20056;-55
2022/10/06 04:12:10;;;;;;;32.22;17.40;;;7.10;99.90;;;;;;5072648;28;20044;-55
2022/10/06 04:14:37;;;;;;;32.00;16.83;;;7.20;99.90;;;;;;5072868;28;20025;-55
2022/10/06 04:17:05;;;;;;;33.78;17.38;;;7.10;99.90;;;;;;5072745;28;20035;-55
2022/10/06 04:19:34;;;;;;;30.52;17.63;;;7.10;99.90;;;;;;5072825;28;20385;-55
2022/10/06 04:22:01;;;;;;;36.47;19.55;;;7.00;99.90;;;;;;5072825;28;20029;-55
2022/10/06 04:24:28;;;;;;;33.33;17.85;;;6.90;99.90;;;;;;5072346;28;20024;-55
2022/10/06 04:27:26;;;;;;;39.95;17.15;;;6.90;99.90;;;;;;5072754;28;20036;-55
2022/10/06 04:29:44;;;;;;;33.63;16.88;;;6.90;99.90;;;;;;5072503;28;20029;-55
2022/10/06 04:32:10;;;;;;;39.85;20.52;;;6.90;99.90;;;;;;5072368;28;20513;-55
2022/10/06 04:34:36;;;;;;;57.00;30.58;;;6.90;99.90;;;;;;5072791;28;20032;-55
2022/10/06 04:37:02;;;;;;;51.95;27.20;;;6.90;99.90;;;;;;5072715;28;20055;-55
2022/10/06 04:39:29;;;;;;;49.45;26.50;;;6.90;99.90;;;;;;5072383;28;20067;-55
2022/10/06 04:41:55;;;;;;;55.83;32.97;;;7.00;99.90;;;;;;5072646;28;20036;-55
2022/10/06 04:44:25;;;;;;;48.33;25.93;;;7.00;99.90;;;;;;5072352;28;20580;-55
2022/10/06 04:46:53;;;;;;;45.13;28.08;;;6.90;99.90;;;;;;5072091;28;20035;-55
2022/10/06 04:49:19;;;;;;;44.28;26.85;;;6.90;99.90;;;;;;5071786;28;20040;-55
2022/10/06 04:51:48;;;;;;;35.92;21.98;;;6.80;99.90;;;;;;5072349;28;20100;-55
2022/10/06 04:54:14;;;;;;;34.53;19.33;;;6.90;99.90;;;;;;5072259;28;20029;-55
2022/10/06 04:56:40;;;;;;;35.83;18.80;;;7.00;99.90;;;;;;5072542;28;20115;-55
2022/10/06 04:59:06;;;;;;;32.33;18.17;;;6.90;99.90;;;;;;5072194;28;20075;-55
2022/10/06 05:01:36;;;;;;;30.25;16.85;;;6.90;99.90;;;;;;5072620;28;20505;-55
2022/10/06 05:04:06;;;;;;;33.75;17.55;;;7.00;99.90;;;;;;5072212;28;20086;-55
2022/10/06 05:06:36;;;;;;;34.15;19.00;;;7.00;99.90;;;;;;5072536;28;20478;-55
2022/10/06 05:09:08;;;;;;;50.08;26.40;;;7.00;99.90;;;;;;5073771;28;20032;-55
2022/10/06 05:11:35;;;;;;;49.58;23.92;;;7.00;99.90;;;;;;5071897;28;20036;-55
2022/10/06 05:14:04;;;;;;;49.42;24.15;;;7.10;99.90;;;;;;5072441;28;20068;-55
2022/10/06 05:16:32;;;;;;;58.83;27.90;;;7.20;99.90;;;;;;5069380;28;20027;-55
2022/10/06 05:18:59;;;;;;;44.45;22.30;;;7.30;99.90;;;;;;5072322;28;20024;-55
2022/10/06 05:21:31;;;;;;;48.67;21.17;;;7.40;99.90;;;;;;5067574;28;20034;-55
2022/10/06 05:23:58;;;;;;;44.65;20.42;;;7.50;99.90;;;;;;5053601;28;20037;-55
2022/10/06 05:26:28;;;;;;;48.45;21.10;;;7.60;99.90;;;;;;5092380;28;20067;-55
2022/10/06 05:28:55;;;;;;;44.28;22.45;;;7.60;99.90;;;;;;5092575;28;20028;-55
2022/10/06 05:31:26;;;;;;;46.65;22.45;;;7.70;99.90;;;;;;5091832;28;20028;-55
2022/10/06 05:33:53;;;;;;;54.72;23.55;;;7.80;99.90;;;;;;5074085;28;20029;-55
2022/10/06 05:36:25;;;;;;;49.97;20.40;;;8.00;99.90;;;;;;5072212;28;20025;-55
2022/10/06 05:38:53;;;;;;;50.05;20.35;;;8.10;99.90;;;;;;5071420;28;20066;-55
2022/10/06 05:41:27;;;;;;;62.40;20.77;;;8.30;99.90;;;;;;5051921;28;20033;-55
2022/10/06 05:43:54;;;;;;;70.05;23.40;;;8.50;99.90;;;;;;5050968;28;20033;-55
2022/10/06 05:46:23;;;;;;;58.42;23.60;;;8.60;99.90;;;;;;5064407;28;20453;-55
2022/10/06 05:48:54;;;;;;;70.57;24.42;;;8.70;99.90;;;;;;5071814;28;20448;-55
2022/10/06 05:51:25;;;;;;;71.93;25.98;;;8.80;99.90;;;;;;5072039;28;20090;-55
2022/10/06 05:53:51;;;;;;;65.78;27.58;;;9.00;99.90;;;;;;5071666;28;20031;-54
2022/10/06 05:56:29;;;;;;;60.15;25.58;;;9.00;99.90;;;;;;5071729;28;20031;-55
2022/10/06 05:58:57;;;;;;;65.88;26.90;;;9.20;99.90;;;;;;5072515;28;20078;-55
2022/10/06 06:01:26;;;;;;;57.88;25.17;;;9.30;99.90;;;;;;5075309;28;20024;-55
2022/10/06 06:03:58;;;;;;;82.80;29.05;;;9.50;99.90;;;;;;5075279;28;20035;-55
2022/10/06 06:06:26;;;;;;;78.85;29.10;;;9.60;99.90;;;;;;5075275;28;20588;-55
2022/10/06 06:09:00;;;;;;;91.07;31.52;;;9.70;99.90;;;;;;5075329;28;20107;-55
2022/10/06 06:11:30;;;;;;;94.88;29.88;;;10.00;99.90;;;;;;5075115;28;20068;-55
2022/10/06 06:14:03;;;;;;;78.25;29.27;;;10.30;99.90;;;;;;5074498;28;20048;-55
2022/10/06 06:16:30;;;;;;;76.00;27.80;;;10.60;99.90;;;;;;5074750;28;20020;-55
2022/10/06 06:18:57;;;;;;;80.47;28.92;;;10.80;99.90;;;;;;5076136;28;20029;-55
2022/10/06 06:21:24;;;;;;;65.50;28.25;;;11.00;99.90;;;;;;5074855;28;20070;-55
2022/10/06 06:23:52;;;;;;;73.40;26.35;;;11.30;99.90;;;;;;5074900;28;20496;-54
2022/10/06 06:26:28;;;;;;;69.22;25.73;;;11.50;99.90;;;;;;5074807;28;20036;-55
2022/10/06 06:29:02;;;;;;;69.40;24.73;;;11.90;99.90;;;;;;5074962;28;20036;-55
2022/10/06 06:31:35;;;;;;;64.47;24.55;;;12.20;99.90;;;;;;5074718;28;20106;-55
2022/10/06 06:34:03;;;;;;;52.08;22.13;;;12.30;99.90;;;;;;5076129;28;20070;-55
2022/10/06 06:36:34;;;;;;;60.50;23.90;;;12.60;99.90;;;;;;5074747;28;20382;-55
2022/10/06 06:39:04;;;;;;;65.65;25.45;;;13.00;99.90;;;;;;5074542;28;20040;-55
2022/10/06 06:41:36;;;;;;;62.15;25.45;;;13.10;99.90;;;;;;5075140;28;20060;-55
2022/10/06 06:44:12;;;;;;;58.30;27.63;;;13.40;99.90;;;;;;5075199;28;20032;-55
2022/10/06 06:46:48;;;;;;;57.55;27.90;;;13.50;99.90;;;;;;5074999;28;20040;-55
2022/10/06 06:49:18;;;;;;;59.42;28.23;;;13.80;99.90;;;;;;5074779;28;20039;-55
2022/10/06 06:51:49;;;;;;;68.85;29.35;;;14.20;99.90;;;;;;5075205;28;20039;-55
2022/10/06 06:54:17;;;;;;;56.03;26.42;;;14.70;99.90;;;;;;5074291;28;20032;-55
2022/10/06 06:56:47;;;;;;;68.03;29.83;;;14.80;98.50;;;;;;5074310;28;20119;-55
2022/10/06 06:59:16;;;;;;;66.63;29.60;;;14.90;97.10;;;;;;5074527;28;20037;-55
2022/10/06 07:01:47;;;;;;;69.25;28.50;;;15.20;97.60;;;;;;5074082;28;20028;-55
2022/10/06 07:04:16;;;;;;;55.58;26.65;;;15.10;96.30;;;;;;5073714;28;20486;-55
2022/10/06 07:06:52;;;;;;;54.90;26.60;;;15.50;96.50;;;;;;5073406;28;20021;-55
2022/10/06 07:09:19;;;;;;;90.90;29.63;;;16.00;94.80;;;;;;5071304;28;20508;-55
2022/10/06 07:11:46;;;;;;;54.70;25.33;;;16.30;94.10;;;;;;5072282;28;20025;-55
2022/10/06 07:14:17;;;;;;;66.05;28.77;;;16.50;92.20;;;;;;5074704;28;20051;-55
2022/10/06 07:25:31;;;;;;;46.90;23.35;;;17.60;86.00;;;;;;5072417;28;20028;-56
2022/10/06 07:28:02;;;;;;;51.78;24.23;;;17.30;86.60;;;;;;5098313;28;20025;-56
2022/10/06 07:30:33;;;;;;;50.55;19.50;;;17.50;85.00;;;;;;5073665;28;20401;-56
2022/10/06 07:33:08;;;;;;;37.95;19.08;;;17.70;83.80;;;;;;5073494;28;20021;-56
2022/10/06 07:35:37;;;;;;;48.00;21.77;;;17.80;84.10;;;;;;5074000;28;20017;-56
2022/10/06 07:38:06;;;;;;;48.30;20.58;;;18.10;82.30;;;;;;5075702;28;20466;-56
2022/10/06 07:40:36;;;;;;;62.85;23.98;;;18.30;84.80;;;;;;5073587;28;20039;-56
2022/10/06 07:43:05;;;;;;;36.33;18.48;;;18.70;82.10;;;;;;5072453;28;20037;-56
2022/10/06 07:45:44;;;;;;;36.72;17.10;;;18.60;80.00;;;;;;5070470;28;20043;-56
2022/10/06 07:48:20;;;;;;;30.10;16.30;;;18.70;80.80;;;;;;5072880;28;20390;-56
2022/10/06 07:50:52;;;;;;;42.58;16.52;;;19.10;79.10;;;;;;5072867;28;20047;-56
2022/10/06 07:53:26;;;;;;;33.33;12.70;;;19.50;76.40;;;;;;5054350;28;20024;-56
2022/10/06 07:56:01;;;;;;;20.35;12.25;;;19.60;73.10;;;;;;5072090;28;20047;-56
2022/10/06 07:58:27;;;;;;;32.40;15.18;;;19.80;74.40;;;;;;5073061;28;20028;-56
2022/10/06 08:00:53;;;;;;;22.90;12.23;;;20.30;73.40;;;;;;5074083;28;20478;-56
2022/10/06 08:03:20;;;;;;;26.52;11.43;;;20.70;68.50;;;;;;5074357;28;20032;-56
2022/10/06 08:05:49;;;;;;;35.10;15.27;;;20.80;67.80;;;;;;5074257;28;20056;-56
2022/10/06 08:08:15;;;;;;;43.67;14.30;;;21.00;69.10;;;;;;5073920;28;20059;-56
2022/10/06 08:10:50;;;;;;;41.70;14.13;;;20.90;67.80;;;;;;5073203;28;20455;-56
2022/10/06 08:13:16;;;;;;;32.45;14.65;;;21.10;66.40;;;;;;5054108;28;20052;-56
2022/10/06 08:15:42;;;;;;;23.27;13.55;;;20.40;68.70;;;;;;5054028;28;20451;-56
2022/10/06 08:18:08;;;;;;;39.95;15.45;;;20.90;67.90;;;;;;5071728;28;20021;-56
2022/10/06 08:20:33;;;;;;;26.52;14.98;;;21.40;69.30;;;;;;5074238;28;20107;-56
2022/10/06 08:22:59;;;;;;;23.92;14.02;;;21.60;65.80;;;;;;5073857;28;20175;-56
2022/10/06 08:25:25;;;;;;;34.03;14.82;;;22.30;67.10;;;;;;5087123;28;20043;-56
2022/10/06 08:27:51;;;;;;;25.48;14.75;;;22.60;64.70;;;;;;5080565;28;20039;-56
2022/10/06 08:30:17;;;;;;;21.58;13.98;;;22.50;64.40;;;;;;5073759;28;20043;-56
2022/10/06 08:32:43;;;;;;;22.58;13.02;;;22.50;62.60;;;;;;5073935;28;20021;-56
2022/10/06 08:35:10;;;;;;;27.45;14.27;;;23.00;61.50;;;;;;5073949;28;20034;-57
2022/10/06 08:37:36;;;;;;;26.63;14.25;;;23.40;60.60;;;;;;5073704;28;20028;-56
2022/10/06 08:40:02;;;;;;;19.35;11.93;;;23.30;59.70;;;;;;5073992;28;20432;-56
2022/10/06 08:42:37;;;;;;;24.48;12.48;;;23.80;60.20;;;;;;5073236;28;20031;-57
2022/10/06 08:45:08;;;;;;;20.90;12.23;;;23.80;57.40;;;;;;5073944;28;20078;-57
2022/10/06 08:47:35;;;;;;;22.20;12.30;;;23.70;58.80;;;;;;5073856;28;20482;-56
2022/10/06 08:50:08;;;;;;;24.98;11.18;;;23.80;59.00;;;;;;5073561;28;20444;-57
2022/10/06 08:52:56;;;;;;;21.40;11.00;;;23.60;57.80;;;;;;5073833;28;20032;-57
2022/10/06 08:55:47;;;;;;;34.90;12.60;;;23.80;59.10;;;;;;5073505;28;20111;-57
2022/10/06 08:58:15;;;;;;;30.02;11.63;;;24.10;57.70;;;;;;5073043;28;20019;-57
2022/10/06 09:00:41;;;;;;;20.30;9.63;;;24.70;55.20;;;;;;5073128;28;20031;-57
2022/10/06 09:03:22;;;;;;;21.52;9.23;;;24.70;54.20;;;;;;5073711;28;20028;-57
2022/10/06 09:05:54;;;;;;;12.63;7.72;;;24.80;54.30;;;;;;5073771;28;20108;-57
2022/10/06 09:08:43;;;;;;;16.33;8.00;;;24.80;50.50;;;;;;5073688;28;20408;-57
2022/10/06 09:11:31;;;;;;;43.83;11.48;;;24.40;50.90;;;;;;5072894;28;20063;-57
2022/10/06 09:14:09;;;;;;;20.25;9.55;;;24.50;52.80;;;;;;5072496;28;20406;-57
2022/10/06 09:16:39;;;;;;;19.20;8.18;;;25.00;49.50;;;;;;5073384;28;20031;-57
2022/10/06 09:19:30;;;;;;;14.70;7.47;;;25.20;50.00;;;;;;5073397;28;20021;-58
2022/10/06 09:21:58;;;;;;;18.88;8.70;;;25.40;48.50;;;;;;5073354;28;20055;-58
2022/10/06 09:24:37;;;;;;;30.85;9.85;;;25.70;48.60;;;;;;5072480;28;20082;-57
2022/10/06 09:27:17;;;;;;;16.27;6.68;;;25.60;49.30;;;;;;5073569;28;20028;-57
2022/10/06 09:29:44;;;;;;;27.77;9.15;;;25.60;46.80;;;;;;5073242;28;20029;-57
2022/10/06 09:32:11;;;;;;;16.25;6.78;;;25.50;48.20;;;;;;5073439;28;20468;-57
2022/10/06 09:34:44;;;;;;;35.45;10.07;;;25.60;48.20;;;;;;5075461;28;20043;-57
2022/10/06 09:37:12;;;;;;;18.48;7.32;;;26.10;47.20;;;;;;5074998;28;20044;-57
2022/10/06 09:39:48;;;;;;;12.90;6.60;;;25.70;45.30;;;;;;5077596;28;20028;-57
2022/10/06 09:42:34;;;;;;;15.48;6.93;;;25.50;46.60;;;;;;5077533;28;20068;-57
2022/10/06 09:45:24;;;;;;;14.18;7.07;;;26.10;48.10;;;;;;5076946;28;20032;-57
2022/10/06 09:47:50;;;;;;;22.60;8.15;;;25.00;47.90;;;;;;5076864;28;20043;-57
2022/10/06 09:50:34;;;;;;;22.08;7.32;;;25.40;47.20;;;;;;5076722;28;20116;-57
2022/10/06 09:53:09;;;;;;;21.30;7.85;;;25.60;45.60;;;;;;5075015;28;20052;-57
2022/10/06 09:55:38;;;;;;;24.83;11.10;;;26.10;45.70;;;;;;5076817;28;20466;-57
2022/10/06 09:58:28;;;;;;;39.55;10.05;;;26.50;45.20;;;;;;5076464;28;20082;-57
2022/10/06 10:00:58;;;;;;;16.75;6.95;;;26.30;44.40;;;;;;5076336;28;20028;-57
2022/10/06 10:03:25;;;;;;;39.72;9.07;;;25.70;44.60;;;;;;5076502;28;20032;-57
2022/10/06 10:05:56;;;;;;;33.22;10.40;;;26.10;47.10;;;;;;5076543;28;20032;-58
2022/10/06 10:08:30;;;;;;;21.08;8.82;;;26.40;46.20;;;;;;5076179;28;20504;-57
2022/10/06 10:13:56;;;;;;;29.80;9.32;;;25.60;46.80;;;;;;5076708;28;20047;-57
2022/10/06 10:16:33;;;;;;;26.88;8.00;;;25.70;46.50;;;;;;5076589;28;20039;-57
2022/10/06 10:19:01;;;;;;;17.95;6.55;;;26.40;44.60;;;;;;5077077;28;20055;-57
2022/10/06 10:21:34;;;;;;;25.63;13.63;;;26.20;43.30;;;;;;5077345;28;20496;-57
2022/10/06 10:24:05;;;;;;;50.85;21.02;;;26.50;45.00;;;;;;5076682;28;20504;-57
2022/10/06 10:26:43;;;;;;;24.50;11.60;;;26.40;44.80;;;;;;5076601;28;20466;-57
2022/10/06 10:29:17;;;;;;;42.15;13.75;;;26.10;45.60;;;;;;5076118;28;20493;-57
2022/10/06 10:32:03;;;;;;;22.95;8.15;;;27.00;45.30;;;;;;5076179;28;20075;-57
2022/10/06 10:34:34;;;;;;;27.50;8.45;;;27.20;43.70;;;;;;5076454;28;20043;-57
2022/10/06 10:37:11;;;;;;;30.95;8.90;;;27.20;42.30;;;;;;5075508;28;20060;-57
2022/10/06 10:39:42;;;;;;;12.27;5.18;;;27.30;43.90;;;;;;5076355;28;20021;-57
2022/10/06 10:42:36;;;;;;;23.00;7.18;;;27.60;42.20;;;;;;5075812;28;20027;-57
2022/10/06 10:45:17;;;;;;;18.13;6.95;;;27.60;40.70;;;;;;5075412;28;20478;-57
2022/10/06 10:47:44;;;;;;;9.50;5.88;;;27.30;42.50;;;;;;5076709;28;20078;-57
2022/10/06 10:50:25;;;;;;;14.48;6.35;;;27.20;44.20;;;;;;5076567;28;20032;-57
2022/10/06 10:52:56;;;;;;;19.02;6.03;;;27.40;41.90;;;;;;5076074;28;20028;-57
2022/10/06 10:55:44;;;;;;;47.90;10.52;;;26.70;40.80;;;;;;5076321;28;20082;-57
2022/10/06 10:58:23;;;;;;;20.73;7.45;;;27.20;40.90;;;;;;5076446;28;20028;-57
2022/10/06 11:00:55;;;;;;;20.65;8.20;;;27.50;42.50;;;;;;5076980;28;20040;-57
2022/10/06 11:03:21;;;;;;;14.63;6.30;;;27.50;41.30;;;;;;5076200;28;20025;-57
2022/10/06 11:06:10;;;;;;;24.00;7.65;;;27.80;43.40;;;;;;5072221;28;20398;-57
2022/10/06 11:08:55;;;;;;;33.97;10.38;;;28.10;41.20;;;;;;5073957;28;20382;-57
2022/10/06 11:11:39;;;;;;;39.20;11.10;;;28.20;45.20;;;;;;5074277;28;20071;-57
2022/10/06 11:14:35;;;;;;;20.25;9.10;;;28.30;41.00;;;;;;5062780;28;20299;-58
2022/10/06 11:17:10;;;;;;;19.30;7.63;;;28.20;40.30;;;;;;5070422;28;20027;-57
2022/10/06 11:19:56;;;;;;;17.63;7.70;;;28.20;38.80;;;;;;5073731;28;20020;-57
2022/10/06 11:23:08;;;;;;;21.00;8.63;;;28.10;41.40;;;;;;5055379;28;20466;-57
2022/10/06 11:26:11;;;;;;;36.70;8.63;;;28.10;38.60;;;;;;5033669;28;20120;-57
2022/10/06 11:28:43;;;;;;;26.77;8.57;;;28.50;39.30;;;;;;5067947;28;20074;-57
2022/10/06 11:31:19;;;;;;;25.38;9.63;;;28.20;38.40;;;;;;5075618;28;20024;-58
2022/10/06 11:33:53;;;;;;;25.08;9.00;;;28.10;38.30;;;;;;5075332;28;20449;-57
2022/10/06 11:36:57;;;;;;;35.20;9.55;;;28.30;38.30;;;;;;5055997;28;20454;-57
2022/10/06 11:39:33;;;;;;;16.98;8.25;;;28.30;41.60;;;;;;5051971;28;20069;-57
2022/10/06 11:42:41;;;;;;;33.95;9.23;;;28.50;38.60;;;;;;5054913;28;20527;-57
2022/10/06 11:45:15;;;;;;;22.92;9.52;;;28.60;41.20;;;;;;4995639;28;20050;-57
2022/10/06 11:48:02;;;;;;;26.73;7.70;;;28.90;40.70;;;;;;5013030;28;20175;-57
2022/10/06 11:50:32;;;;;;;17.92;7.82;;;28.90;37.00;;;;;;5012626;28;20038;-57
2022/10/06 11:52:58;;;;;;;24.60;8.30;;;29.10;38.00;;;;;;5005590;28;20026;-57
2022/10/06 11:55:27;;;;;;;21.33;8.75;;;28.70;39.10;;;;;;5011765;28;20029;-57
2022/10/06 11:58:13;;;;;;;39.25;11.20;;;28.80;40.20;;;;;;5012058;28;20104;-57
2022/10/06 12:00:44;;;;;;;24.73;9.10;;;27.70;40.40;;;;;;5005956;28;20022;-57
2022/10/06 12:03:27;;;;;;;34.45;9.98;;;27.70;41.40;;;;;;4999566;28;20030;-57
2022/10/06 12:05:54;;;;;;;35.83;10.95;;;28.20;41.30;;;;;;5001190;28;20037;-57
2022/10/06 12:08:36;;;;;;;41.47;9.65;;;28.40;40.80;;;;;;4998137;28;20037;-57
2022/10/06 12:11:44;;;;;;;25.48;7.78;;;28.40;40.90;;;;;;4998756;28;20121;-57
2022/10/06 12:14:51;;;;;;;35.25;11.40;;;28.10;42.40;;;;;;5009864;28;20048;-57
2022/10/06 12:17:24;;;;;;;36.83;10.45;;;28.30;43.20;;;;;;5068776;28;20470;-57
2022/10/06 12:20:12;;;;;;;37.03;9.98;;;28.30;43.00;;;;;;5054198;28;20106;-57
2022/10/06 12:23:03;;;;;;;17.42;7.72;;;28.40;43.00;;;;;;5061534;28;20491;-57
2022/10/06 12:25:39;;;;;;;36.30;13.57;;;28.00;43.70;;;;;;5077060;28;20047;-57
2022/10/06 12:28:31;;;;;;;16.58;8.40;;;28.30;45.30;;;;;;5077870;28;20119;-58
2022/10/06 12:31:27;;;;;;;28.83;10.43;;;28.10;42.70;;;;;;5053820;28;20478;-57
2022/10/06 12:33:54;;;;;;;36.17;10.35;;;28.50;43.40;;;;;;5053961;28;20056;-57
2022/10/06 12:36:28;;;;;;;26.33;9.57;;;28.50;42.10;;;;;;5053478;28;20025;-57
2022/10/06 12:39:01;;;;;;;16.88;7.63;;;28.10;44.50;;;;;;5054203;28;20071;-57
2022/10/06 12:41:55;;;;;;;16.50;8.43;;;28.20;41.20;;;;;;5053988;28;20083;-57
2022/10/06 12:44:47;;;;;;;21.17;7.85;;;28.30;44.30;;;;;;5054144;28;20064;-57
2022/10/06 12:47:33;;;;;;;39.53;11.63;;;28.20;40.70;;;;;;5058574;28;20056;-57
2022/10/06 12:50:07;;;;;;;43.92;12.07;;;27.80;42.20;;;;;;5071403;28;20724;-57
2022/10/06 12:52:49;;;;;;;40.58;12.02;;;27.80;46.10;;;;;;5073217;28;20037;-57
2022/10/06 12:55:41;;;;;;;20.25;8.02;;;27.80;44.90;;;;;;5070858;28;20029;-57
2022/10/06 12:58:25;;;;;;;14.70;7.72;;;27.60;44.60;;;;;;5062884;28;20032;-57
2022/10/06 13:00:52;;;;;;;36.78;10.05;;;27.40;45.40;;;;;;5064181;28;20056;-57
2022/10/06 13:03:28;;;;;;;15.88;7.38;;;27.70;43.30;;;;;;5071990;28;20393;-57
2022/10/06 13:06:02;;;;;;;13.60;7.05;;;27.40;42.30;;;;;;5066103;28;20150;-57
2022/10/06 13:08:37;;;;;;;27.45;8.93;;;27.30;44.00;;;;;;5060762;28;20036;-57